Time;durP1;ratioP1;P1;durP2;ratioP2;P2;SDS_P1;SDS_P2;PMS_P1;PMS_P2;Temp;Humidity;BMP_temperature;BMP_pressure;BME280_temperature;BME280_humidity;BME280_pressure;Samples;Min_cycle;Max_cycle;Signal;HPM_P1;HPM_P2
2022/12/18 00:01:32;;;;;;;4.53;2.63;;;;;;;;;;5037817;27;92836;-58
2022/12/18 00:04:01;;;;;;;4.47;2.97;;;;;;;;;;5038424;27;92163;-59
2022/12/18 00:06:30;;;;;;;6.10;2.80;;;;;;;;;;5038395;27;91410;-58
2022/12/18 00:08:59;;;;;;;5.20;2.93;;;;;;;;;;5037398;27;94128;-58
2022/12/18 00:11:28;;;;;;;5.77;3.00;;;;;;;;;;5037774;27;92809;-58
2022/12/18 00:13:57;;;;;;;5.97;2.57;;;;;;;;;;5037442;27;92968;-60
2022/12/18 00:16:25;;;;;;;5.37;2.83;;;;;;;;;;5038728;27;92026;-60
2022/12/18 00:18:54;;;;;;;3.90;2.80;;;;;;;;;;5040960;27;93100;-60
2022/12/18 00:21:22;;;;;;;5.10;2.80;;;;;;;;;;5040766;27;92618;-60
2022/12/18 00:23:51;;;;;;;3.93;2.33;;;;;;;;;;5041539;27;92062;-60
2022/12/18 00:26:21;;;;;;;2.27;1.90;;;;;;;;;;5041258;27;92837;-60
2022/12/18 00:28:49;;;;;;;5.23;3.47;;;;;;;;;;5040406;27;94347;-60
2022/12/18 00:31:18;;;;;;;3.83;2.53;;;;;;;;;;5041128;27;93010;-60
2022/12/18 00:33:47;;;;;;;4.53;2.20;;;;;;;;;;5041010;27;91987;-60
2022/12/18 00:36:21;;;;;;;3.47;2.50;;;;;;;;;;5041062;27;92020;-60
2022/12/18 00:38:50;;;;;;;3.47;2.20;;;;;;;;;;5039583;28;93986;-60
2022/12/18 00:42:55;;;;;;;3.30;2.63;;;;;;;;;;5040722;27;94691;-59
2022/12/18 00:44:07;;;;;;;3.97;3.17;;;;;;;;;;5040788;27;92113;-59
2022/12/18 00:46:35;;;;;;;5.40;2.80;;;;;;;;;;5040867;27;92234;-59
2022/12/18 00:49:04;;;;;;;5.87;2.90;;;;;;;;;;5040315;27;93205;-60
2022/12/18 00:51:32;;;;;;;6.13;2.60;;;;;;;;;;5040344;28;93845;-60
2022/12/18 00:54:00;;;;;;;4.67;2.73;;;;;;;;;;5040743;27;92631;-59
2022/12/18 00:56:28;;;;;;;4.20;2.93;;;;;;;;;;5040757;28;91324;-60
2022/12/18 00:58:57;;;;;;;5.97;3.13;;;;;;;;;;5040419;27;93233;-60
2022/12/18 01:01:26;;;;;;;3.43;2.60;;;;;;;;;;5039935;28;93940;-60
2022/12/18 01:03:55;;;;;;;6.77;2.70;;;;;;;;;;5040331;27;93038;-60
2022/12/18 01:06:23;;;;;;;3.17;2.30;;;;;;;;;;5040480;27;92153;-60
2022/12/18 01:08:51;;;;;;;2.37;2.17;;;;;;;;;;5039939;27;94326;-60
2022/12/18 01:11:20;;;;;;;9.10;2.37;;;;;;;;;;5040059;28;93887;-60
2022/12/18 01:13:48;;;;;;;4.27;2.30;;;;;;;;;;5040579;27;92144;-60
2022/12/18 01:16:17;;;;;;;6.00;3.03;;;;;;;;;;5040096;27;92216;-60
2022/12/18 01:18:47;;;;;;;2.80;2.37;;;;;;;;;;5040093;27;92616;-59
2022/12/18 01:21:16;;;;;;;3.57;2.03;;;;;;;;;;5039996;27;93103;-60
2022/12/18 01:23:45;;;;;;;4.83;2.70;;;;;;;;;;5040251;27;92191;-60
2022/12/18 01:26:13;;;;;;;3.00;2.40;;;;;;;;;;5047378;27;92348;-60
2022/12/18 01:28:42;;;;;;;5.03;2.50;;;;;;;;;;5054611;27;95069;-55
2022/12/18 01:31:11;;;;;;;5.33;3.00;;;;;;;;;;5041593;27;93889;-56
2022/12/18 01:33:39;;;;;;;3.90;2.57;;;;;;;;;;5062981;27;92108;-55
2022/12/18 01:36:10;;;;;;;6.77;3.00;;;;;;;;;;5041053;27;92173;-56
2022/12/18 01:38:38;;;;;;;4.77;2.37;;;;;;;;;;5040500;27;94229;-55
2022/12/18 01:41:06;;;;;;;5.93;3.30;;;;;;;;;;5055483;27;92988;-56
2022/12/18 01:43:48;;;;;;;3.80;3.07;;;;;;;;;;5055403;27;92053;-55
2022/12/18 01:46:17;;;;;;;4.23;2.40;;;;;;;;;;5081011;27;91344;-56
2022/12/18 01:48:45;;;;;;;4.10;2.83;;;;;;;;;;5064380;27;94263;-56
2022/12/18 01:51:15;;;;;;;4.07;2.83;;;;;;;;;;5060002;27;93801;-56
2022/12/18 01:53:43;;;;;;;6.27;3.37;;;;;;;;;;5059596;27;93065;-56
2022/12/18 01:56:14;;;;;;;4.10;2.63;;;;;;;;;;5060138;27;92160;-56
2022/12/18 01:58:43;;;;;;;4.73;2.80;;;;;;;;;;5060295;27;94401;-56
2022/12/18 02:01:11;;;;;;;6.13;3.50;;;;;;;;;;5058581;27;92541;-55
2022/12/18 02:03:42;;;;;;;5.40;2.20;;;;;;;;;;5060118;27;92128;-56
2022/12/18 02:06:12;;;;;;;6.20;3.00;;;;;;;;;;5059443;27;92002;-55
2022/12/18 02:08:42;;;;;;;5.87;2.37;;;;;;;;;;5059513;27;94046;-56
2022/12/18 02:11:12;;;;;;;4.40;2.50;;;;;;;;;;5059600;27;92952;-56
2022/12/18 02:13:42;;;;;;;5.13;3.13;;;;;;;;;;5059660;27;92152;-56
2022/12/18 02:16:12;;;;;;;3.70;2.27;;;;;;;;;;5059605;27;92085;-55
2022/12/18 02:18:42;;;;;;;8.63;2.77;;;;;;;;;;5058473;27;94572;-55
2022/12/18 02:21:11;;;;;;;6.70;2.87;;;;;;;;;;5054251;27;94880;-56
2022/12/18 02:23:44;;;;;;;4.70;2.60;;;;;;;;;;5079474;27;92211;-55
2022/12/18 02:26:16;;;;;;;5.17;2.60;;;;;;;;;;5080045;27;92003;-56
2022/12/18 02:28:45;;;;;;;4.83;2.63;;;;;;;;;;5069987;27;94222;-55
2022/12/18 02:31:15;;;;;;;3.07;2.43;;;;;;;;;;5058374;27;94196;-56
2022/12/18 02:33:43;;;;;;;6.70;3.27;;;;;;;;;;5072933;27;92153;-56
2022/12/18 02:36:12;;;;;;;5.87;2.70;;;;;;;;;;5062742;27;91347;-56
2022/12/18 02:38:40;;;;;;;5.67;3.17;;;;;;;;;;5063264;27;92925;-56
2022/12/18 02:41:08;;;;;;;4.20;2.57;;;;;;;;;;5059801;27;93739;-57
2022/12/18 02:43:38;;;;;;;5.40;2.80;;;;;;;;;;5058862;27;93011;-56
2022/12/18 02:46:21;;;;;;;3.40;2.70;;;;;;;;;;5067471;27;92106;-57
2022/12/18 02:48:50;;;;;;;6.20;2.57;;;;;;;;;;5060882;27;94035;-56
2022/12/18 02:51:20;;;;;;;4.93;2.87;;;;;;;;;;5067422;27;92817;-55
2022/12/18 02:53:50;;;;;;;4.97;2.93;;;;;;;;;;5080011;27;92109;-55
2022/12/18 02:56:19;;;;;;;4.87;3.03;;;;;;;;;;5072429;27;92653;-55
2022/12/18 02:58:49;;;;;;;5.77;2.63;;;;;;;;;;5064509;27;94041;-56
2022/12/18 03:01:18;;;;;;;5.87;2.77;;;;;;;;;;5072901;27;94091;-57
2022/12/18 03:03:48;;;;;;;5.90;2.77;;;;;;;;;;5059384;27;92150;-56
2022/12/18 03:06:18;;;;;;;4.87;2.47;;;;;;;;;;5073605;27;92021;-55
2022/12/18 03:08:47;;;;;;;4.17;2.30;;;;;;;;;;5077915;27;94105;-55
2022/12/18 03:11:15;;;;;;;6.33;2.03;;;;;;;;;;5059301;27;94812;-56
2022/12/18 03:13:45;;;;;;;3.03;2.10;;;;;;;;;;5064991;27;92065;-56
2022/12/18 03:16:15;;;;;;;8.27;3.20;;;;;;;;;;5068840;27;92044;-56
2022/12/18 03:18:44;;;;;;;6.73;2.80;;;;;;;;;;5068888;27;93046;-56
2022/12/18 03:21:13;;;;;;;3.30;2.33;;;;;;;;;;5076423;27;92962;-56
2022/12/18 03:23:46;;;;;;;4.03;2.33;;;;;;;;;;5077377;27;92003;-55
2022/12/18 03:26:16;;;;;;;5.43;3.30;;;;;;;;;;5061596;27;92962;-55
2022/12/18 03:28:45;;;;;;;4.47;2.70;;;;;;;;;;5077332;27;94391;-56
2022/12/18 03:31:15;;;;;;;3.33;2.00;;;;;;;;;;5076899;27;93040;-56
2022/12/18 03:33:44;;;;;;;7.57;3.20;;;;;;;;;;5067851;27;93931;-57
2022/12/18 03:36:12;;;;;;;4.30;2.80;;;;;;;;;;5067003;27;92065;-57
2022/12/18 03:38:40;;;;;;;3.87;3.03;;;;;;;;;;5077788;27;94150;-56
2022/12/18 03:41:10;;;;;;;4.60;2.67;;;;;;;;;;5058656;27;93863;-56
2022/12/18 03:43:41;;;;;;;4.90;2.40;;;;;;;;;;5058680;27;92083;-57
2022/12/18 03:46:12;;;;;;;4.10;2.23;;;;;;;;;;5058148;27;92019;-56
2022/12/18 03:48:43;;;;;;;4.40;2.10;;;;;;;;;;5058876;27;93247;-57
2022/12/18 03:51:11;;;;;;;6.83;2.97;;;;;;;;;;5061160;27;93910;-56
2022/12/18 03:53:41;;;;;;;4.30;2.63;;;;;;;;;;5066342;27;94142;-56
2022/12/18 03:56:10;;;;;;;4.87;2.30;;;;;;;;;;5065008;27;92066;-56
2022/12/18 03:58:41;;;;;;;5.03;2.43;;;;;;;;;;5072887;27;93537;-56
2022/12/18 04:01:09;;;;;;;6.37;2.67;;;;;;;;;;5084298;27;93664;-56
2022/12/18 04:03:38;;;;;;;3.13;2.20;;;;;;;;;;5071358;27;94501;-55
2022/12/18 04:06:08;;;;;;;3.17;2.17;;;;;;;;;;5083862;27;92188;-57
2022/12/18 04:08:36;;;;;;;4.27;2.27;;;;;;;;;;5085389;27;94250;-56
2022/12/18 04:11:05;;;;;;;2.97;2.13;;;;;;;;;;5083638;27;93970;-55
2022/12/18 04:13:33;;;;;;;6.50;2.40;;;;;;;;;;5065233;27;92021;-53
2022/12/18 04:16:02;;;;;;;5.47;2.60;;;;;;;;;;5064914;27;91565;-56
2022/12/18 04:18:30;;;;;;;2.47;2.03;;;;;;;;;;5067064;27;94302;-57
2022/12/18 04:20:58;;;;;;;4.23;2.33;;;;;;;;;;5075392;27;92992;-55
2022/12/18 04:23:28;;;;;;;5.90;2.80;;;;;;;;;;5082844;27;93033;-56
2022/12/18 04:25:56;;;;;;;3.43;2.33;;;;;;;;;;5070613;27;92433;-56
2022/12/18 04:28:25;;;;;;;4.27;2.13;;;;;;;;;;5063854;27;94201;-56
2022/12/18 04:30:53;;;;;;;4.87;2.43;;;;;;;;;;5082018;27;93859;-56
2022/12/18 04:33:21;;;;;;;4.70;2.27;;;;;;;;;;5076896;27;92210;-56
2022/12/18 04:35:50;;;;;;;4.00;2.17;;;;;;;;;;5076304;27;92248;-56
2022/12/18 04:38:18;;;;;;;3.57;2.40;;;;;;;;;;5084773;27;92928;-56
2022/12/18 04:40:47;;;;;;;3.27;2.00;;;;;;;;;;5084900;27;92987;-55
2022/12/18 04:43:16;;;;;;;3.20;2.10;;;;;;;;;;5067790;27;92110;-56
2022/12/18 04:45:44;;;;;;;3.97;2.17;;;;;;;;;;5071758;27;92071;-56
2022/12/18 04:48:12;;;;;;;4.00;2.57;;;;;;;;;;5077244;27;95213;-56
2022/12/18 04:50:41;;;;;;;4.53;2.20;;;;;;;;;;5063820;27;93544;-56
2022/12/18 04:53:09;;;;;;;4.27;2.37;;;;;;;;;;5064975;27;92118;-56
2022/12/18 04:55:37;;;;;;;4.27;2.03;;;;;;;;;;5075571;27;92164;-56
2022/12/18 04:58:07;;;;;;;3.97;2.17;;;;;;;;;;5073657;27;94201;-55
2022/12/18 05:00:36;;;;;;;3.97;1.70;;;;;;;;;;5063686;27;93789;-56
2022/12/18 05:03:05;;;;;;;5.53;2.60;;;;;;;;;;5071136;27;93385;-57
2022/12/18 05:05:33;;;;;;;3.50;2.23;;;;;;;;;;5063319;27;91864;-56
2022/12/18 05:08:01;;;;;;;4.43;1.77;;;;;;;;;;5080312;27;94122;-55
2022/12/18 05:10:30;;;;;;;4.17;2.17;;;;;;;;;;5081068;27;93890;-56
2022/12/18 05:13:05;;;;;;;3.30;2.50;;;;;;;;;;5080520;27;92936;-56
2022/12/18 05:15:35;;;;;;;4.73;2.63;;;;;;;;;;5080673;27;92112;-56
2022/12/18 05:18:04;;;;;;;6.17;2.63;;;;;;;;;;5075915;27;94171;-55
2022/12/18 05:20:32;;;;;;;3.80;1.90;;;;;;;;;;5080688;27;93851;-56
2022/12/18 05:23:00;;;;;;;4.80;2.13;;;;;;;;;;5080485;27;92640;-56
2022/12/18 05:25:28;;;;;;;2.57;1.73;;;;;;;;;;5063775;27;92160;-55
2022/12/18 05:27:57;;;;;;;4.57;2.23;;;;;;;;;;5059719;27;93783;-56
2022/12/18 05:30:25;;;;;;;3.73;1.97;;;;;;;;;;5059754;27;92873;-57
2022/12/18 05:32:55;;;;;;;3.53;2.33;;;;;;;;;;5060198;27;93218;-56
2022/12/18 05:35:24;;;;;;;3.13;2.30;;;;;;;;;;5076017;27;92111;-55
2022/12/18 05:37:52;;;;;;;3.00;1.97;;;;;;;;;;5059813;27;95034;-56
2022/12/18 05:40:20;;;;;;;2.80;2.27;;;;;;;;;;5068193;27;94908;-55
2022/12/18 05:42:48;;;;;;;2.00;1.80;;;;;;;;;;5080541;27;94175;-55
2022/12/18 05:45:17;;;;;;;2.13;1.80;;;;;;;;;;5079993;27;92263;-56
2022/12/18 05:47:45;;;;;;;2.87;2.00;;;;;;;;;;5079795;27;94208;-55
2022/12/18 05:50:15;;;;;;;3.97;1.87;;;;;;;;;;5064960;27;92966;-55
2022/12/18 05:52:43;;;;;;;3.13;1.90;;;;;;;;;;5039713;27;92010;-55
2022/12/18 05:55:11;;;;;;;2.00;1.67;;;;;;;;;;5039842;27;91365;-55
2022/12/18 05:57:40;;;;;;;7.23;2.83;;;;;;;;;;5042545;27;94250;-55
2022/12/18 06:00:09;;;;;;;2.70;1.73;;;;;;;;;;5067321;27;93224;-55
2022/12/18 06:02:37;;;;;;;1.43;1.33;;;;;;;;;;5073319;27;92975;-55
2022/12/18 06:05:06;;;;;;;2.93;2.30;;;;;;;;;;5061275;27;92117;-55
2022/12/18 06:07:35;;;;;;;2.33;1.93;;;;;;;;;;5074251;27;92996;-56
2022/12/18 06:10:04;;;;;;;3.33;1.83;;;;;;;;;;5079198;27;93630;-55
2022/12/18 06:12:33;;;;;;;4.20;1.93;;;;;;;;;;5079780;27;92203;-55
2022/12/18 06:15:01;;;;;;;4.30;2.40;;;;;;;;;;5077594;27;92206;-55
2022/12/18 06:17:30;;;;;;;4.07;1.67;;;;;;;;;;5078866;27;94151;-55
2022/12/18 06:19:58;;;;;;;3.93;1.67;;;;;;;;;;5063164;27;93828;-56
2022/12/18 06:22:26;;;;;;;3.53;2.13;;;;;;;;;;5059253;27;92433;-55
2022/12/18 06:24:56;;;;;;;3.13;2.20;;;;;;;;;;5071661;27;92234;-55
2022/12/18 06:27:24;;;;;;;3.67;1.43;;;;;;;;;;5078400;27;95150;-56
2022/12/18 06:29:53;;;;;;;3.63;2.20;;;;;;;;;;5076980;27;93862;-55
2022/12/18 06:32:21;;;;;;;2.90;2.00;;;;;;;;;;5077217;27;92059;-56
2022/12/18 06:34:49;;;;;;;3.17;2.17;;;;;;;;;;5076841;27;92192;-55
2022/12/18 06:37:18;;;;;;;2.53;1.80;;;;;;;;;;5066336;27;93317;-55
2022/12/18 06:39:46;;;;;;;2.67;1.60;;;;;;;;;;5058747;27;93868;-55
2022/12/18 06:42:16;;;;;;;4.77;2.30;;;;;;;;;;5059977;27;91983;-55
2022/12/18 06:44:44;;;;;;;2.03;1.67;;;;;;;;;;5060583;27;91396;-56
2022/12/18 06:47:12;;;;;;;2.23;1.60;;;;;;;;;;5060477;27;94248;-56
2022/12/18 06:49:40;;;;;;;2.10;1.47;;;;;;;;;;5058677;27;94106;-55
2022/12/18 06:52:09;;;;;;;4.17;2.10;;;;;;;;;;5058610;27;93028;-55
2022/12/18 06:54:37;;;;;;;3.10;2.20;;;;;;;;;;5068835;27;92069;-55
2022/12/18 06:57:05;;;;;;;2.67;2.30;;;;;;;;;;5064546;27;94225;-55
2022/12/18 06:59:35;;;;;;;2.83;2.00;;;;;;;;;;5070766;27;92938;-56
2022/12/18 07:02:04;;;;;;;2.43;1.77;;;;;;;;;;5078883;27;92059;-55
2022/12/18 07:04:32;;;;;;;4.07;2.13;;;;;;;;;;5078350;27;92146;-55
2022/12/18 07:07:01;;;;;;;2.53;1.37;;;;;;;;;;5062010;27;92805;-54
2022/12/18 07:09:29;;;;;;;2.13;1.63;;;;;;;;;;5075831;27;93990;-55
2022/12/18 07:11:57;;;;;;;3.53;1.67;;;;;;;;;;5079449;27;92076;-55
2022/12/18 07:14:26;;;;;;;2.97;1.47;;;;;;;;;;5078959;27;93138;-55
2022/12/18 07:16:56;;;;;;;1.40;1.30;;;;;;;;;;5076906;27;94775;-55
2022/12/18 07:19:24;;;;;;;3.03;1.70;;;;;;;;;;5078382;27;93324;-54
2022/12/18 07:21:52;;;;;;;3.03;1.70;;;;;;;;;;5062870;27;92770;-55
2022/12/18 07:24:21;;;;;;;2.70;1.73;;;;;;;;;;5058430;27;92065;-56
2022/12/18 07:26:49;;;;;;;3.50;2.20;;;;;;;;;;5057458;27;94161;-55
2022/12/18 07:29:18;;;;;;;2.07;1.80;;;;;;;;;;5057907;27;92620;-55
2022/12/18 07:31:46;;;;;;;2.27;1.40;;;;;;;;;;5076945;27;92073;-56
2022/12/18 07:34:16;;;;;;;3.33;1.47;;;;;;;;;;5076292;27;91350;-55
2022/12/18 07:36:44;;;;;;;2.30;1.27;;;;;;;;;;5065030;27;94112;-55
2022/12/18 07:39:13;;;;;;;3.77;1.63;;;;;;;;;;5072120;27;92825;-55
2022/12/18 07:41:45;;;;;;;3.10;1.93;;;;;;;;;;5067284;27;93068;-54
2022/12/18 07:44:14;;;;;;;2.10;1.30;;;;;;;;;;5063395;27;92081;-56
2022/12/18 07:46:43;;;;;;;2.20;2.00;;;;;;;;;;5072374;27;94137;-56
2022/12/18 07:49:11;;;;;;;3.07;1.50;;;;;;;;;;5067780;27;92687;-56
2022/12/18 07:51:41;;;;;;;2.63;1.77;;;;;;;;;;5045846;27;92177;-55
2022/12/18 07:54:09;;;;;;;2.47;1.50;;;;;;;;;;5037729;27;92132;-55
2022/12/18 07:56:37;;;;;;;3.27;1.43;;;;;;;;;;5037241;27;94112;-55
2022/12/18 07:59:05;;;;;;;1.80;1.53;;;;;;;;;;5038862;27;94170;-55
2022/12/18 08:01:34;;;;;;;2.83;1.30;;;;;;;;;;5055637;27;91920;-55
2022/12/18 08:04:03;;;;;;;2.10;1.33;;;;;;;;;;5057570;27;92063;-55
2022/12/18 08:06:31;;;;;;;1.53;1.43;;;;;;;;;;5050405;27;95346;-55
2022/12/18 08:09:01;;;;;;;1.80;1.33;;;;;;;;;;5051952;27;93738;-56
2022/12/18 08:11:29;;;;;;;2.83;1.37;;;;;;;;;;5038772;27;92596;-55
2022/12/18 08:13:58;;;;;;;1.70;1.37;;;;;;;;;;5039104;27;92051;-55
2022/12/18 08:16:26;;;;;;;2.13;1.53;;;;;;;;;;5037683;27;93498;-55
2022/12/18 08:18:54;;;;;;;2.37;1.47;;;;;;;;;;5045942;27;93969;-55
2022/12/18 08:21:23;;;;;;;3.17;1.53;;;;;;;;;;5057092;27;92049;-55
2022/12/18 08:23:52;;;;;;;2.37;1.50;;;;;;;;;;5050074;27;91647;-55
2022/12/18 08:26:21;;;;;;;2.47;1.60;;;;;;;;;;5037045;27;94198;-55
2022/12/18 08:28:51;;;;;;;1.90;1.33;;;;;;;;;;5036896;27;94036;-55
2022/12/18 08:31:19;;;;;;;2.27;2.00;;;;;;;;;;5055331;27;93008;-56
2022/12/18 08:33:49;;;;;;;2.27;2.00;;;;;;;;;;5050797;27;92187;-55
2022/12/18 08:36:18;;;;;;;2.10;1.17;;;;;;;;;;5046780;27;93201;-55
2022/12/18 08:38:46;;;;;;;1.60;1.03;;;;;;;;;;5058760;27;93828;-55
2022/12/18 08:41:15;;;;;;;2.30;1.50;;;;;;;;;;5042888;27;92058;-55
2022/12/18 08:46:33;;;;;;;1.83;1.30;;;;;;;;;;5041272;27;93169;-55
2022/12/18 08:49:02;;;;;;;3.63;1.40;;;;;;;;;;5040801;27;94182;-56
2022/12/18 08:51:31;;;;;;;2.10;1.03;;;;;;;;;;5040472;27;92113;-55
2022/12/18 08:53:59;;;;;;;2.00;1.80;;;;;;;;;;5040809;27;92307;-55
2022/12/18 08:56:27;;;;;;;1.73;1.30;;;;;;;;;;5048460;27;94217;-55
2022/12/18 08:58:57;;;;;;;2.83;1.03;;;;;;;;;;5059833;27;94629;-55
2022/12/18 09:01:25;;;;;;;1.67;1.13;;;;;;;;;;5043604;27;92446;-56
2022/12/18 09:03:54;;;;;;;2.53;1.30;;;;;;;;;;5039987;27;92071;-56
2022/12/18 09:06:22;;;;;;;1.63;1.30;;;;;;;;;;5057801;27;96170;-55
2022/12/18 09:08:51;;;;;;;3.77;1.63;;;;;;;;;;5041350;27;93808;-55
2022/12/18 09:11:21;;;;;;;2.20;1.20;;;;;;;;;;5040115;27;92100;-55
2022/12/18 09:13:49;;;;;;;1.57;1.13;;;;;;;;;;5040594;27;91478;-55
2022/12/18 09:16:19;;;;;;;2.40;1.07;;;;;;;;;;5041161;27;92846;-56
2022/12/18 09:18:48;;;;;;;1.60;1.47;;;;;;;;;;5054909;27;92789;-55
2022/12/18 09:21:16;;;;;;;1.33;1.23;;;;;;;;;;5060078;27;92975;-56
2022/12/18 09:23:45;;;;;;;1.13;0.90;;;;;;;;;;5040978;27;92093;-55
2022/12/18 09:26:13;;;;;;;1.83;1.10;;;;;;;;;;5058886;27;94112;-56
2022/12/18 09:28:41;;;;;;;1.70;1.10;;;;;;;;;;5059522;27;93813;-56
2022/12/18 09:31:10;;;;;;;1.90;1.17;;;;;;;;;;5056909;27;92177;-55
2022/12/18 09:33:40;;;;;;;3.27;2.50;;;;;;;;;;5058433;27;92216;-55
2022/12/18 09:36:09;;;;;;;2.07;1.20;;;;;;;;;;5046851;27;93281;-56
2022/12/18 09:38:38;;;;;;;3.27;1.23;;;;;;;;;;5058624;27;92773;-56
2022/12/18 09:41:07;;;;;;;1.40;1.10;;;;;;;;;;5060285;27;92225;-56
2022/12/18 09:43:36;;;;;;;2.10;1.33;;;;;;;;;;5060174;27;92137;-55
2022/12/18 09:46:06;;;;;;;2.30;1.43;;;;;;;;;;5057747;27;95268;-56
2022/12/18 09:48:36;;;;;;;1.30;1.20;;;;;;;;;;5058700;27;93778;-54
2022/12/18 09:51:07;;;;;;;1.83;1.43;;;;;;;;;;5059904;27;92769;-55
2022/12/18 09:53:36;;;;;;;2.33;1.63;;;;;;;;;;5060114;27;92127;-55
2022/12/18 09:56:05;;;;;;;1.97;1.20;;;;;;;;;;5059660;27;94147;-55
2022/12/18 09:58:34;;;;;;;2.57;1.43;;;;;;;;;;5059442;27;92245;-56
2022/12/18 10:01:03;;;;;;;2.07;1.40;;;;;;;;;;5060127;27;92193;-55
2022/12/18 10:03:31;;;;;;;3.10;1.40;;;;;;;;;;5056254;27;91258;-56
2022/12/18 10:06:01;;;;;;;1.60;1.20;;;;;;;;;;5039455;28;94224;-55
2022/12/18 10:08:35;;;;;;;1.60;1.20;;;;;;;;;;5039679;27;94014;-55
2022/12/18 10:11:05;;;;;;;1.67;1.50;;;;;;;;;;5039511;27;93055;-55
2022/12/18 10:13:35;;;;;;;2.80;1.40;;;;;;;;;;5039535;27;92149;-55
2022/12/18 10:16:06;;;;;;;1.53;1.30;;;;;;;;;;5039096;28;93154;-56
2022/12/18 10:18:38;;;;;;;1.27;1.17;;;;;;;;;;5039202;27;93767;-55
2022/12/18 10:21:10;;;;;;;3.63;1.73;;;;;;;;;;5053697;27;92000;-55
2022/12/18 10:23:41;;;;;;;1.80;1.33;;;;;;;;;;5059449;27;92076;-55
2022/12/18 10:26:15;;;;;;;1.23;1.13;;;;;;;;;;5059282;27;94138;-56
2022/12/18 10:28:44;;;;;;;1.73;1.40;;;;;;;;;;5057670;27;93809;-54
2022/12/18 10:31:14;;;;;;;1.67;1.50;;;;;;;;;;5060075;27;92101;-55
2022/12/18 10:33:42;;;;;;;1.57;1.07;;;;;;;;;;5060079;27;92277;-55
2022/12/18 10:36:11;;;;;;;3.47;1.13;;;;;;;;;;5058091;27;95209;-55
2022/12/18 10:38:40;;;;;;;1.07;0.90;;;;;;;;;;5058650;27;94717;-55
2022/12/18 10:41:25;;;;;;;1.57;1.30;;;;;;;;;;5059713;27;92082;-56
2022/12/18 10:44:09;;;;;;;2.90;1.67;;;;;;;;;;5059587;27;92100;-55
2022/12/18 10:46:37;;;;;;;2.50;2.30;;;;;;;;;;5038586;27;93449;-55
2022/12/18 10:49:06;;;;;;;0.90;0.90;;;;;;;;;;5038638;28;92728;-56
2022/12/18 10:51:35;;;;;;;1.83;1.50;;;;;;;;;;5038861;27;92113;-55
2022/12/18 10:54:05;;;;;;;1.70;1.07;;;;;;;;;;5039044;27;91297;-56
2022/12/18 10:56:35;;;;;;;2.83;1.40;;;;;;;;;;5037937;28;93507;-57
2022/12/18 10:59:03;;;;;;;1.57;0.87;;;;;;;;;;5038169;28;93880;-55
2022/12/18 11:01:34;;;;;;;3.67;1.50;;;;;;;;;;5036411;27;93044;-55
2022/12/18 11:04:04;;;;;;;1.10;1.00;;;;;;;;;;5038779;27;91974;-55
2022/12/18 11:06:32;;;;;;;2.60;1.10;;;;;;;;;;5037544;27;93056;-54
2022/12/18 11:09:02;;;;;;;2.17;1.60;;;;;;;;;;5038154;27;93771;-56
2022/12/18 11:11:41;;;;;;;1.40;1.13;;;;;;;;;;5038955;27;92203;-54
2022/12/18 11:14:14;;;;;;;2.07;1.53;;;;;;;;;;5038391;27;92128;-54
2022/12/18 11:16:44;;;;;;;1.03;0.93;;;;;;;;;;5038124;27;94066;-56
2022/12/18 11:19:33;;;;;;;1.17;1.07;;;;;;;;;;5039053;27;95420;-55
2022/12/18 11:22:02;;;;;;;2.20;1.10;;;;;;;;;;5038199;28;92071;-55
2022/12/18 11:24:32;;;;;;;1.30;1.20;;;;;;;;;;5038309;27;92154;-55
2022/12/18 11:27:02;;;;;;;1.80;1.27;;;;;;;;;;5037620;28;95190;-56
2022/12/18 11:29:33;;;;;;;1.67;1.23;;;;;;;;;;5038113;27;94037;-55
2022/12/18 11:32:14;;;;;;;1.87;1.27;;;;;;;;;;5079513;27;92079;-55
2022/12/18 11:34:43;;;;;;;1.40;1.30;;;;;;;;;;5069248;27;92146;-55
2022/12/18 11:37:11;;;;;;;1.40;1.10;;;;;;;;;;5058642;27;94233;-55
2022/12/18 11:39:40;;;;;;;1.53;1.33;;;;;;;;;;5058256;27;94058;-56
2022/12/18 11:42:13;;;;;;;1.10;1.00;;;;;;;;;;5059156;27;92143;-55
2022/12/18 11:44:44;;;;;;;1.10;1.00;;;;;;;;;;5059057;27;91294;-55
2022/12/18 11:47:15;;;;;;;3.03;1.53;;;;;;;;;;5070780;27;94117;-55
2022/12/18 11:49:43;;;;;;;2.50;1.57;;;;;;;;;;5078720;27;92935;-56
2022/12/18 11:52:14;;;;;;;1.37;1.27;;;;;;;;;;5078302;27;92987;-55
2022/12/18 11:54:43;;;;;;;0.70;0.70;;;;;;;;;;5079264;27;92063;-55
2022/12/18 11:57:15;;;;;;;1.93;1.60;;;;;;;;;;5078047;27;94308;-55
2022/12/18 11:59:45;;;;;;;1.77;1.17;;;;;;;;;;5078664;27;92930;-55
2022/12/18 12:02:17;;;;;;;1.20;1.10;;;;;;;;;;5078157;27;92087;-54
2022/12/18 12:04:57;;;;;;;1.83;1.23;;;;;;;;;;5058911;27;92113;-55
2022/12/18 12:07:29;;;;;;;2.50;1.13;;;;;;;;;;5073628;27;93107;-56
2022/12/18 12:10:00;;;;;;;1.33;0.87;;;;;;;;;;5075553;27;93836;-55
2022/12/18 12:12:45;;;;;;;2.27;1.10;;;;;;;;;;5059351;27;91996;-55
2022/12/18 12:15:19;;;;;;;1.13;1.03;;;;;;;;;;5075484;27;92089;-55
2022/12/18 12:17:49;;;;;;;1.77;1.20;;;;;;;;;;5081417;27;94848;-55
2022/12/18 12:20:18;;;;;;;0.90;0.90;;;;;;;;;;5078259;27;94686;-56
2022/12/18 12:22:47;;;;;;;1.57;1.30;;;;;;;;;;5062029;27;92103;-55
2022/12/18 12:25:20;;;;;;;2.00;1.37;;;;;;;;;;5061509;27;92061;-55
2022/12/18 12:27:51;;;;;;;1.33;1.17;;;;;;;;;;5057055;27;94142;-55
2022/12/18 12:30:20;;;;;;;1.77;1.33;;;;;;;;;;5061134;27;93857;-56
2022/12/18 12:33:04;;;;;;;3.43;1.37;;;;;;;;;;5061297;27;92952;-55
2022/12/18 12:35:34;;;;;;;1.83;1.20;;;;;;;;;;5059861;27;91374;-55
2022/12/18 12:38:06;;;;;;;3.03;1.37;;;;;;;;;;5060400;27;94245;-55
2022/12/18 12:40:35;;;;;;;1.83;0.87;;;;;;;;;;5061253;27;92617;-55
2022/12/18 12:43:25;;;;;;;1.53;1.23;;;;;;;;;;5060976;27;93105;-55
2022/12/18 12:45:55;;;;;;;2.63;0.87;;;;;;;;;;5061249;27;92313;-56
2022/12/18 12:48:34;;;;;;;1.43;0.83;;;;;;;;;;5042151;27;92761;-55
2022/12/18 12:51:03;;;;;;;1.50;0.90;;;;;;;;;;5053455;27;93948;-55
2022/12/18 12:53:37;;;;;;;1.67;1.23;;;;;;;;;;5061038;27;92004;-54
2022/12/18 12:56:06;;;;;;;1.70;1.00;;;;;;;;;;5060969;27;92233;-55
2022/12/18 12:58:38;;;;;;;1.90;1.10;;;;;;;;;;5060300;27;93293;-55
2022/12/18 13:01:11;;;;;;;1.93;1.27;;;;;;;;;;5060329;27;93772;-55
2022/12/18 13:03:49;;;;;;;3.43;1.27;;;;;;;;;;5060957;27;92117;-55
2022/12/18 13:06:21;;;;;;;2.33;1.40;;;;;;;;;;5039542;27;92221;-55
2022/12/18 13:08:54;;;;;;;2.00;1.30;;;;;;;;;;5068083;27;94918;-55
2022/12/18 13:14:31;;;;;;;1.53;0.87;;;;;;;;;;5061602;27;92128;-56
2022/12/18 13:17:18;;;;;;;2.60;1.13;;;;;;;;;;5061163;27;92198;-55
2022/12/18 13:19:50;;;;;;;3.13;1.70;;;;;;;;;;5060310;27;94070;-54
2022/12/18 13:22:22;;;;;;;1.30;1.10;;;;;;;;;;5060447;27;94012;-55
2022/12/18 13:24:50;;;;;;;1.83;1.40;;;;;;;;;;5059655;27;92103;-55
2022/12/18 13:27:37;;;;;;;1.00;0.87;;;;;;;;;;5059775;27;91355;-54
2022/12/18 13:30:14;;;;;;;2.43;1.50;;;;;;;;;;5059592;27;94189;-55
2022/12/18 13:32:42;;;;;;;1.97;1.00;;;;;;;;;;5059778;27;93762;-55
2022/12/18 13:35:29;;;;;;;1.20;1.07;;;;;;;;;;5059064;27;93279;-54
2022/12/18 13:37:58;;;;;;;1.30;1.17;;;;;;;;;;5049683;27;92000;-56
2022/12/18 13:40:41;;;;;;;1.90;1.30;;;;;;;;;;5039494;28;93080;-53
2022/12/18 13:43:21;;;;;;;5.13;1.60;;;;;;;;;;5034779;27;92717;-54
2022/12/18 13:46:00;;;;;;;1.33;1.20;;;;;;;;;;5040238;27;92656;-55
2022/12/18 13:48:29;;;;;;;2.70;0.90;;;;;;;;;;5040178;27;92147;-54
2022/12/18 13:51:03;;;;;;;2.20;1.10;;;;;;;;;;5039716;28;93058;-54
2022/12/18 13:53:32;;;;;;;0.80;0.80;;;;;;;;;;5053374;27;93797;-53
2022/12/18 13:56:01;;;;;;;1.70;1.00;;;;;;;;;;5063610;27;92021;-54
2022/12/18 13:58:29;;;;;;;1.90;1.03;;;;;;;;;;5060468;27;92062;-54
2022/12/18 14:01:01;;;;;;;3.90;1.97;;;;;;;;;;5058918;27;95216;-54
2022/12/18 14:03:31;;;;;;;4.87;2.07;;;;;;;;;;5059443;27;94858;-55
2022/12/18 14:06:04;;;;;;;6.33;2.23;;;;;;;;;;5059888;27;92029;-54
2022/12/18 14:08:38;;;;;;;4.90;2.77;;;;;;;;;;5059440;27;91985;-51
2022/12/18 14:11:07;;;;;;;11.17;8.73;;;;;;;;;;5059001;27;94273;-54
2022/12/18 14:13:39;;;;;;;38.87;25.03;;;;;;;;;;5058716;27;93730;-54
2022/12/18 14:16:08;;;;;;;48.23;32.17;;;;;;;;;;5058770;27;92310;-53
2022/12/18 14:18:43;;;;;;;41.40;26.90;;;;;;;;;;5059528;27;91372;-53
2022/12/18 14:21:18;;;;;;;34.50;21.77;;;;;;;;;;5058272;27;93075;-54
2022/12/18 14:23:46;;;;;;;32.50;19.97;;;;;;;;;;5058526;27;94320;-54
2022/12/18 14:26:21;;;;;;;27.70;18.37;;;;;;;;;;5058697;27;94138;-54
2022/12/18 14:28:50;;;;;;;24.57;16.60;;;;;;;;;;5059057;27;92081;-54
2022/12/18 14:31:20;;;;;;;22.73;14.60;;;;;;;;;;5058798;27;94174;-53
2022/12/18 14:33:49;;;;;;;16.80;12.40;;;;;;;;;;5058955;27;94080;-53
2022/12/18 14:36:18;;;;;;;17.30;11.37;;;;;;;;;;5058641;27;92058;-54
2022/12/18 14:38:49;;;;;;;17.57;10.73;;;;;;;;;;5059208;27;92602;-54
2022/12/18 14:41:18;;;;;;;15.03;10.83;;;;;;;;;;5050616;27;93184;-53
2022/12/18 14:43:46;;;;;;;15.83;10.43;;;;;;;;;;5070741;27;93532;-53
2022/12/18 14:46:29;;;;;;;13.40;8.73;;;;;;;;;;5076364;27;92143;-53
2022/12/18 14:48:57;;;;;;;11.13;7.63;;;;;;;;;;5059242;27;91988;-54
2022/12/18 14:51:27;;;;;;;11.33;7.27;;;;;;;;;;5058238;27;94258;-53
2022/12/18 14:53:56;;;;;;;10.47;6.90;;;;;;;;;;5054167;27;93824;-53
2022/12/18 14:56:25;;;;;;;12.07;7.47;;;;;;;;;;5076253;27;91991;-54
2022/12/18 14:58:54;;;;;;;8.97;6.33;;;;;;;;;;5042960;27;92193;-55
2022/12/18 15:01:27;;;;;;;13.03;5.83;;;;;;;;;;5058441;27;94185;-55
2022/12/18 15:03:57;;;;;;;7.37;4.87;;;;;;;;;;5058195;27;93403;-55